createdAt,value
2022-11-03T00:01:15.949Z,11.68
2022-11-03T00:03:45.123Z,11.55
2022-11-03T00:06:12.875Z,11.70
2022-11-03T00:08:41.943Z,11.48
2022-11-03T00:11:11.749Z,11.59
2022-11-03T00:13:41.045Z,11.56
2022-11-03T00:16:10.592Z,11.37
2022-11-03T00:18:38.784Z,11.21
2022-11-03T00:21:09.289Z,11.12
2022-11-03T00:23:38.342Z,11.10
2022-11-03T00:26:07.782Z,10.80
2022-11-03T00:28:36.094Z,11.03
2022-11-03T00:31:08.327Z,11.00
2022-11-03T00:33:38.244Z,10.89
2022-11-03T00:36:09.547Z,11.01
2022-11-03T00:38:37.588Z,10.85
2022-11-03T00:41:07.034Z,11.12
2022-11-03T00:43:35.728Z,11.35
2022-11-03T00:46:04.945Z,11.37
2022-11-03T00:48:33.923Z,11.43
2022-11-03T00:51:06.647Z,11.49
2022-11-03T00:53:37.162Z,11.46
2022-11-03T00:56:05.900Z,11.58
2022-11-03T00:58:34.069Z,11.56
2022-11-03T01:01:03.577Z,11.65
2022-11-03T01:03:33.285Z,11.61
2022-11-03T01:06:19.036Z,11.63
2022-11-03T01:08:48.298Z,11.50
2022-11-03T01:11:34.715Z,11.42
2022-11-03T01:14:02.762Z,11.23
2022-11-03T01:16:30.774Z,11.27
2022-11-03T01:18:58.639Z,11.42
2022-11-03T01:21:26.430Z,11.32
2022-11-03T01:23:55.527Z,11.33
2022-11-03T01:26:23.287Z,11.39
2022-11-03T01:28:51.024Z,11.34
2022-11-03T01:31:20.528Z,11.26
2022-11-03T01:33:48.580Z,11.26
2022-11-03T01:36:17.109Z,11.12
2022-11-03T01:38:45.277Z,11.15
2022-11-03T01:41:17.244Z,11.00
2022-11-03T01:43:45.366Z,11.12
2022-11-03T01:46:17.938Z,10.93
2022-11-03T01:48:48.773Z,10.77
2022-11-03T01:51:19.181Z,10.87
2022-11-03T01:53:48.522Z,10.92
2022-11-03T01:56:18.060Z,10.74
2022-11-03T01:58:48.755Z,10.60
2022-11-03T02:01:16.838Z,10.66
2022-11-03T02:03:49.083Z,10.64
2022-11-03T02:06:17.295Z,10.44
2022-11-03T02:08:48.149Z,10.58
2022-11-03T02:11:33.287Z,10.45
2022-11-03T02:14:02.663Z,10.53
2022-11-03T02:16:32.728Z,10.48
2022-11-03T02:19:02.620Z,10.35
2022-11-03T02:21:35.552Z,10.36
2022-11-03T02:24:09.747Z,10.47
2022-11-03T02:26:39.087Z,10.47
2022-11-03T02:29:06.817Z,10.33
2022-11-03T02:31:39.232Z,10.23
2022-11-03T02:34:09.758Z,10.09
2022-11-03T02:36:42.600Z,10.14
2022-11-03T02:39:12.725Z,9.93
2022-11-03T02:41:42.701Z,10.14
2022-11-03T02:44:15.272Z,10.08
2022-11-03T02:46:43.603Z,10.29
2022-11-03T02:49:11.425Z,10.20
2022-11-03T02:51:39.176Z,10.08
2022-11-03T02:54:10.107Z,9.98
2022-11-03T02:56:40.439Z,9.95
2022-11-03T02:59:12.224Z,9.93
2022-11-03T03:01:47.927Z,9.86
2022-11-03T03:04:20.328Z,9.86
2022-11-03T03:06:52.424Z,10.12
2022-11-03T03:09:24.915Z,10.11
2022-11-03T03:11:54.979Z,10.15
2022-11-03T03:14:25.670Z,10.19
2022-11-03T03:17:00.495Z,10.21
2022-11-03T03:19:33.714Z,10.21
2022-11-03T03:22:05.014Z,10.23
2022-11-03T03:24:42.190Z,10.22
2022-11-03T03:27:12.225Z,10.18
2022-11-03T03:29:43.601Z,10.13
2022-11-03T03:32:11.778Z,10.10
2022-11-03T03:34:41.026Z,9.98
2022-11-03T03:37:09.172Z,9.85
2022-11-03T03:39:39.490Z,9.87
2022-11-03T03:42:08.601Z,9.79
2022-11-03T03:44:37.713Z,9.74
2022-11-03T03:47:09.123Z,9.59
2022-11-03T03:49:36.871Z,9.59
2022-11-03T03:52:04.742Z,9.78
2022-11-03T03:54:32.506Z,9.95
2022-11-03T03:57:03.733Z,9.70
2022-11-03T03:59:31.821Z,9.80
2022-11-03T04:02:00.043Z,9.89
2022-11-03T04:04:31.134Z,9.86
2022-11-03T04:07:12.783Z,9.81
2022-11-03T04:09:40.750Z,9.66
2022-11-03T04:12:26.890Z,9.85
2022-11-03T04:15:12.279Z,9.67
2022-11-03T04:17:59.794Z,9.69
2022-11-03T04:20:46.680Z,9.68
2022-11-03T04:23:14.423Z,9.72
2022-11-03T04:25:43.212Z,9.63
2022-11-03T04:28:11.940Z,9.46
2022-11-03T04:30:39.838Z,9.54
2022-11-03T04:33:13.927Z,9.53
2022-11-03T04:35:45.168Z,9.45
2022-11-03T04:38:22.711Z,9.40
2022-11-03T04:40:54.615Z,9.40
2022-11-03T04:43:25.428Z,9.30
2022-11-03T04:45:54.014Z,9.36
2022-11-03T04:48:23.570Z,9.36
2022-11-03T04:50:55.505Z,9.46
2022-11-03T04:53:23.982Z,9.60
2022-11-03T04:55:53.014Z,9.63
2022-11-03T04:58:21.966Z,9.57
2022-11-03T05:00:51.205Z,9.67
2022-11-03T05:03:23.028Z,9.40
2022-11-03T05:05:52.631Z,9.70
2022-11-03T05:08:21.430Z,9.71
2022-11-03T05:10:49.702Z,9.68
2022-11-03T05:13:21.616Z,9.62
2022-11-03T05:15:50.343Z,9.56
2022-11-03T05:18:20.499Z,9.58
2022-11-03T05:20:53.272Z,9.66
2022-11-03T05:23:22.401Z,9.58
2022-11-03T05:25:52.619Z,9.72
2022-11-03T05:28:25.973Z,9.55
2022-11-03T05:30:54.080Z,9.48
2022-11-03T05:33:23.817Z,9.54
2022-11-03T05:35:52.946Z,9.55
2022-11-03T05:38:22.337Z,9.48
2022-11-03T05:40:52.096Z,9.41
2022-11-03T05:43:20.886Z,9.34
2022-11-03T05:45:49.680Z,9.54
2022-11-03T05:48:20.305Z,9.33
2022-11-03T05:50:48.046Z,9.20
2022-11-03T05:53:31.943Z,9.14
2022-11-03T05:56:03.413Z,9.14
2022-11-03T05:58:34.921Z,9.11
2022-11-03T06:01:06.003Z,9.06
2022-11-03T06:03:38.280Z,9.01
2022-11-03T06:06:14.419Z,8.95
2022-11-03T06:08:46.017Z,8.97
2022-11-03T06:11:22.707Z,8.91
2022-11-03T06:13:50.537Z,8.99
2022-11-03T06:16:38.250Z,8.99
2022-11-03T06:19:21.357Z,9.03
2022-11-03T06:21:50.372Z,8.88
2022-11-03T06:24:21.630Z,8.89
2022-11-03T06:26:50.822Z,8.89
2022-11-03T06:29:20.222Z,8.86
2022-11-03T06:31:49.805Z,8.89
2022-11-03T06:34:27.267Z,8.81
2022-11-03T06:36:57.238Z,8.91
2022-11-03T06:39:26.382Z,8.91
2022-11-03T06:41:54.141Z,8.81
2022-11-03T06:44:25.292Z,8.76
2022-11-03T06:46:55.379Z,8.77
2022-11-03T06:49:28.494Z,8.94
2022-11-03T06:51:56.439Z,8.79
2022-11-03T06:54:25.708Z,8.88
2022-11-03T06:56:53.504Z,8.84
2022-11-03T06:59:21.449Z,8.74
2022-11-03T07:01:53.605Z,8.85
2022-11-03T07:04:23.033Z,8.83
2022-11-03T07:06:53.446Z,8.90
2022-11-03T07:09:24.006Z,8.90
2022-11-03T07:11:55.416Z,9.02
2022-11-03T07:14:26.358Z,9.01
2022-11-03T07:16:55.813Z,8.99
2022-11-03T07:19:25.053Z,8.91
2022-11-03T07:21:54.282Z,8.97
2022-11-03T07:24:24.321Z,9.05
2022-11-03T07:26:57.460Z,9.03
2022-11-03T07:29:28.303Z,9.02
2022-11-03T07:31:58.443Z,9.11
2022-11-03T07:34:28.615Z,9.08
2022-11-03T07:36:57.685Z,9.13
2022-11-03T07:39:35.249Z,9.24
2022-11-03T07:42:14.173Z,9.32
2022-11-03T07:44:42.045Z,9.37
2022-11-03T07:47:13.499Z,9.27
2022-11-03T07:49:41.538Z,9.31
2022-11-03T07:52:12.046Z,9.36
2022-11-03T07:54:39.960Z,9.50
2022-11-03T07:57:15.836Z,9.41
2022-11-03T07:59:45.528Z,9.45
2022-11-03T08:02:22.255Z,9.53
2022-11-03T08:04:50.060Z,9.51
2022-11-03T08:07:17.775Z,9.53
2022-11-03T08:09:45.510Z,9.54
2022-11-03T08:12:14.611Z,9.59
2022-11-03T08:14:42.347Z,9.61
2022-11-03T08:17:10.094Z,9.64
2022-11-03T08:19:37.840Z,9.64
2022-11-03T08:22:05.561Z,9.67
2022-11-03T08:24:33.349Z,9.66
2022-11-03T08:27:03.538Z,9.72
2022-11-03T08:29:32.690Z,9.73
2022-11-03T08:32:00.422Z,9.88
2022-11-03T08:34:28.200Z,9.81
2022-11-03T08:36:55.930Z,9.91
2022-11-03T08:39:23.795Z,9.95
2022-11-03T08:41:51.616Z,9.95
2022-11-03T08:44:19.357Z,10.04
2022-11-03T08:46:48.495Z,10.06
2022-11-03T08:49:16.212Z,10.13
2022-11-03T08:51:44.973Z,10.17
2022-11-03T08:54:12.948Z,10.21
2022-11-03T08:56:40.691Z,10.25
2022-11-03T08:59:08.703Z,10.16
2022-11-03T09:01:36.496Z,10.27
2022-11-03T09:04:06.013Z,10.37
2022-11-03T09:06:33.797Z,10.30
2022-11-03T09:11:49.348Z,10.45
2022-11-03T09:14:17.239Z,10.48
2022-11-03T09:16:45.254Z,10.59
2022-11-03T09:19:14.395Z,10.65
2022-11-03T09:21:42.154Z,10.69
2022-11-03T09:24:10.447Z,10.70
2022-11-03T09:26:38.346Z,10.75
2022-11-03T09:29:06.104Z,10.78
2022-11-03T09:31:33.840Z,10.89
2022-11-03T09:34:01.556Z,10.88
2022-11-03T09:36:30.681Z,11.04
2022-11-03T09:38:58.448Z,11.06
2022-11-03T09:41:44.231Z,11.14
2022-11-03T09:44:14.075Z,11.16
2022-11-03T09:46:42.268Z,11.27
2022-11-03T09:49:14.231Z,11.36
2022-11-03T09:51:44.027Z,11.38
2022-11-03T09:54:14.047Z,11.50
2022-11-03T09:56:42.132Z,11.58
2022-11-03T09:59:15.627Z,11.58
2022-11-03T10:01:45.476Z,11.73
2022-11-03T10:04:13.727Z,11.80
2022-11-03T10:06:42.831Z,11.87
2022-11-03T10:09:13.844Z,11.94
2022-11-03T10:11:41.707Z,12.00
2022-11-03T10:14:13.514Z,12.17
2022-11-03T10:16:42.051Z,12.25
2022-11-03T10:19:11.307Z,12.43
2022-11-03T10:21:39.609Z,12.45
2022-11-03T10:24:12.623Z,12.43
2022-11-03T10:26:48.285Z,12.68
2022-11-03T10:29:20.718Z,12.65
2022-11-03T10:31:51.401Z,12.71
2022-11-03T10:34:36.581Z,12.74
2022-11-03T10:37:12.139Z,12.84
2022-11-03T10:39:41.852Z,12.90
2022-11-03T10:42:18.411Z,12.93
2022-11-03T10:44:46.179Z,12.91
2022-11-03T10:47:24.208Z,12.86
2022-11-03T10:49:51.952Z,12.84
2022-11-03T10:52:22.397Z,12.89
2022-11-03T10:54:53.263Z,12.86
2022-11-03T10:57:21.740Z,12.85
2022-11-03T10:59:51.839Z,13.03
2022-11-03T11:02:20.926Z,13.11
2022-11-03T11:04:50.003Z,13.23
2022-11-03T11:07:21.401Z,13.37
2022-11-03T11:09:49.186Z,13.38
2022-11-03T11:12:19.878Z,13.47
2022-11-03T11:14:55.979Z,13.47
2022-11-03T11:17:43.485Z,13.49
2022-11-03T11:20:32.540Z,13.59
2022-11-03T11:23:49.430Z,13.60
2022-11-03T11:26:41.504Z,13.58
2022-11-03T11:29:44.275Z,13.61
2022-11-03T11:32:51.952Z,13.66
2022-11-03T11:36:06.312Z,13.61
2022-11-03T11:38:55.876Z,13.64
2022-11-03T11:42:06.724Z,13.64
2022-11-03T11:44:57.541Z,13.65
2022-11-03T11:47:43.453Z,13.67
2022-11-03T11:50:31.280Z,13.74
2022-11-03T11:53:14.718Z,13.59
2022-11-03T11:55:49.209Z,13.63
2022-11-03T11:58:24.625Z,13.60
2022-11-03T12:01:05.225Z,13.56
2022-11-03T12:03:35.948Z,13.51
2022-11-03T12:06:04.193Z,13.49
2022-11-03T12:08:32.457Z,13.52
2022-11-03T12:11:03.125Z,13.56
2022-11-03T12:13:47.369Z,13.62
2022-11-03T12:16:33.426Z,13.63
2022-11-03T12:19:39.614Z,13.56
2022-11-03T12:22:09.213Z,13.54
2022-11-03T12:24:49.505Z,13.51
2022-11-03T12:27:44.895Z,13.53
2022-11-03T12:30:15.445Z,13.53
2022-11-03T12:32:44.602Z,13.58
2022-11-03T12:35:13.494Z,13.58
2022-11-03T12:37:41.991Z,13.66
2022-11-03T12:40:12.458Z,13.61
2022-11-03T12:42:40.207Z,13.71
2022-11-03T12:45:09.042Z,13.81
2022-11-03T12:47:36.786Z,13.79
2022-11-03T12:50:06.993Z,13.73
2022-11-03T12:52:34.719Z,13.72
2022-11-03T12:55:04.299Z,13.75
2022-11-03T12:57:32.058Z,13.71
2022-11-03T12:59:59.769Z,13.70
2022-11-03T13:02:27.594Z,13.69
2022-11-03T13:04:56.035Z,13.76
2022-11-03T13:07:30.307Z,13.86
2022-11-03T13:10:04.093Z,13.90
2022-11-03T13:12:37.241Z,13.86
2022-11-03T13:15:07.445Z,13.89
2022-11-03T13:17:59.347Z,13.82
2022-11-03T13:20:22.873Z,13.83
2022-11-03T13:22:52.199Z,13.85
2022-11-03T13:25:19.984Z,13.84
2022-11-03T13:27:53.596Z,13.78
2022-11-03T13:30:21.659Z,13.83
2022-11-03T13:32:49.391Z,13.77
2022-11-03T13:35:17.367Z,13.75
2022-11-03T13:37:45.405Z,13.76
2022-11-03T13:40:35.769Z,13.77
2022-11-03T13:43:03.985Z,13.82
2022-11-03T13:45:31.813Z,13.75
2022-11-03T13:50:50.681Z,13.78
2022-11-03T13:56:11.418Z,13.68
2022-11-03T14:01:30.967Z,13.71
2022-11-03T14:06:46.711Z,13.63
2022-11-03T14:09:14.415Z,13.65
2022-11-03T14:12:01.047Z,13.61
2022-11-03T14:14:29.652Z,13.67
2022-11-03T14:16:57.491Z,13.71
2022-11-03T14:19:33.405Z,13.60
2022-11-03T14:22:04.589Z,13.67
2022-11-03T14:24:32.589Z,13.73
2022-11-03T14:27:01.678Z,13.66
2022-11-03T14:29:29.703Z,13.66
2022-11-03T14:31:57.447Z,13.66
2022-11-03T14:34:25.230Z,13.63
2022-11-03T14:36:53.073Z,13.60
2022-11-03T14:39:20.883Z,13.59
2022-11-03T14:42:07.871Z,13.62
2022-11-03T14:44:38.320Z,13.61
2022-11-03T14:47:08.946Z,13.60
2022-11-03T14:49:36.868Z,13.57
2022-11-03T14:52:07.032Z,13.54
2022-11-03T14:54:35.252Z,13.54
2022-11-03T14:57:03.260Z,13.49
2022-11-03T14:59:31.125Z,13.53
2022-11-03T15:02:01.023Z,13.57
2022-11-03T15:04:28.962Z,13.62
2022-11-03T15:06:56.798Z,13.59
2022-11-03T15:09:24.586Z,13.59
2022-11-03T15:11:52.327Z,13.56
2022-11-03T15:14:20.252Z,13.53
2022-11-03T15:16:48.130Z,13.54
2022-11-03T15:19:17.345Z,13.51
2022-11-03T15:21:45.101Z,13.47
2022-11-03T15:27:00.545Z,13.47
2022-11-03T15:29:29.750Z,13.43
2022-11-03T15:31:57.463Z,13.45
2022-11-03T15:34:26.552Z,13.47
2022-11-03T15:36:54.265Z,13.46
2022-11-03T15:39:22.028Z,13.36
2022-11-03T15:41:49.741Z,13.46
2022-11-03T15:44:17.497Z,13.34
2022-11-03T15:46:45.216Z,13.28
2022-11-03T15:49:12.930Z,13.27
2022-11-03T15:51:42.054Z,13.24
2022-11-03T15:54:09.791Z,13.27
2022-11-03T15:56:37.550Z,13.26
2022-11-03T15:59:05.309Z,13.25
2022-11-03T16:01:33.179Z,13.34
2022-11-03T16:04:01.091Z,13.27
2022-11-03T16:07:01.191Z,13.25
2022-11-03T16:09:17.828Z,13.30
2022-11-03T16:11:45.564Z,13.22
2022-11-03T16:14:13.352Z,13.24
2022-11-03T16:16:41.108Z,13.28
2022-11-03T16:19:10.280Z,13.14
2022-11-03T16:21:38.279Z,13.02
2022-11-03T16:24:06.581Z,13.04
2022-11-03T16:26:35.674Z,13.02
2022-11-03T16:29:04.443Z,12.99
2022-11-03T16:31:32.573Z,13.02
2022-11-03T16:34:00.319Z,13.06
2022-11-03T16:36:29.669Z,12.92
2022-11-03T16:38:57.537Z,12.87
2022-11-03T16:41:25.350Z,12.87
2022-11-03T16:43:54.497Z,12.78
2022-11-03T16:46:22.249Z,12.82
2022-11-03T16:48:50.116Z,12.82
2022-11-03T16:51:18.196Z,12.84
2022-11-03T16:53:46.096Z,12.72
2022-11-03T16:56:13.880Z,12.83
2022-11-03T16:58:41.608Z,12.78
2022-11-03T17:01:11.050Z,12.78
2022-11-03T17:03:38.805Z,12.71
2022-11-03T17:06:07.505Z,12.68
2022-11-03T17:11:36.613Z,12.67
2022-11-03T17:14:08.925Z,12.66
2022-11-03T17:16:38.032Z,12.66
2022-11-03T17:19:05.785Z,12.65
2022-11-03T17:21:33.550Z,12.64
2022-11-03T17:24:04.486Z,12.55
2022-11-03T17:26:41.953Z,12.64
2022-11-03T17:29:15.172Z,12.57
2022-11-03T17:31:44.266Z,12.48
2022-11-03T17:34:12.899Z,12.56
2022-11-03T17:36:40.973Z,12.59
2022-11-03T17:39:09.356Z,12.55
2022-11-03T17:41:37.529Z,12.49
2022-11-03T17:44:11.692Z,12.52
2022-11-03T17:46:39.452Z,12.49
2022-11-03T17:49:08.555Z,12.44
2022-11-03T17:51:38.160Z,12.49
2022-11-03T17:54:08.034Z,12.49
2022-11-03T17:56:36.169Z,12.50
2022-11-03T17:59:04.515Z,12.52
2022-11-03T18:01:32.820Z,12.52
2022-11-03T18:04:00.606Z,12.51
2022-11-03T18:06:30.482Z,12.50
2022-11-03T18:08:59.277Z,12.43
2022-11-03T18:11:47.110Z,12.44
2022-11-03T18:14:15.514Z,12.44
2022-11-03T18:16:43.496Z,12.52
2022-11-03T18:19:12.611Z,12.38
2022-11-03T18:21:41.907Z,12.44
2022-11-03T18:24:12.675Z,12.42
2022-11-03T18:26:40.547Z,12.42
2022-11-03T18:29:08.743Z,12.35
2022-11-03T18:31:38.264Z,12.37
2022-11-03T18:34:10.599Z,12.36
2022-11-03T18:36:38.355Z,12.35
2022-11-03T18:39:07.660Z,12.28
2022-11-03T18:41:40.291Z,12.31
2022-11-03T18:44:14.695Z,12.41
2022-11-03T18:46:42.404Z,12.30
2022-11-03T18:49:10.391Z,12.35
2022-11-03T18:51:38.339Z,12.36
2022-11-03T18:54:09.780Z,12.37
2022-11-03T18:56:38.429Z,12.35
2022-11-03T18:59:06.608Z,12.32
2022-11-03T19:01:34.479Z,12.27
2022-11-03T19:04:02.260Z,12.31
2022-11-03T19:06:30.988Z,12.29
2022-11-03T19:09:00.120Z,12.29
2022-11-03T19:11:31.002Z,12.30
2022-11-03T19:13:59.587Z,12.28
2022-11-03T19:16:27.300Z,12.24
2022-11-03T19:18:55.016Z,12.31
2022-11-03T19:21:24.924Z,12.35
2022-11-03T19:23:58.003Z,12.29
2022-11-03T19:26:29.318Z,12.27
2022-11-03T19:29:00.248Z,12.29
2022-11-03T19:31:35.589Z,12.24
2022-11-03T19:34:04.127Z,12.28
2022-11-03T19:36:32.252Z,12.32
2022-11-03T19:39:00.941Z,12.28
2022-11-03T19:41:50.007Z,12.28
2022-11-03T19:44:19.117Z,12.28
2022-11-03T19:46:53.814Z,12.28
2022-11-03T19:49:21.588Z,12.26
2022-11-03T19:51:49.297Z,12.24
2022-11-03T19:54:19.471Z,12.26
2022-11-03T19:56:47.589Z,12.19
2022-11-03T19:59:17.208Z,12.14
2022-11-03T20:01:46.484Z,12.18
2022-11-03T20:04:14.311Z,12.09
2022-11-03T20:06:42.076Z,12.16
2022-11-03T20:09:12.546Z,12.19
2022-11-03T20:11:40.314Z,12.09
2022-11-03T20:14:10.527Z,12.24
2022-11-03T20:16:38.306Z,12.11
2022-11-03T20:19:07.700Z,12.14
2022-11-03T20:21:35.819Z,12.08
2022-11-03T20:24:04.097Z,12.22
2022-11-03T20:26:31.915Z,12.14
2022-11-03T20:28:59.961Z,12.17
2022-11-03T20:31:27.693Z,12.03
2022-11-03T20:33:55.640Z,11.98
2022-11-03T20:36:24.741Z,12.00
2022-11-03T20:38:55.577Z,12.03
2022-11-03T20:41:23.363Z,12.09
2022-11-03T20:43:52.949Z,12.07
2022-11-03T20:46:26.051Z,12.04
2022-11-03T20:48:55.234Z,11.95
2022-11-03T20:51:26.085Z,11.94
2022-11-03T20:53:55.600Z,12.07
2022-11-03T20:56:24.889Z,12.11
2022-11-03T20:58:52.679Z,12.07
2022-11-03T21:01:24.738Z,12.12
2022-11-03T21:03:59.175Z,11.96
2022-11-03T21:06:29.927Z,11.96
2022-11-03T21:08:57.891Z,12.01
2022-11-03T21:11:40.415Z,12.03
2022-11-03T21:14:14.930Z,12.02
2022-11-03T21:17:00.415Z,11.94
2022-11-03T21:19:48.903Z,11.96
2022-11-03T21:22:38.314Z,12.01
2022-11-03T21:25:10.246Z,11.98
2022-11-03T21:27:41.710Z,12.00
2022-11-03T21:30:14.772Z,11.89
2022-11-03T21:32:42.643Z,12.05
2022-11-03T21:35:13.813Z,11.92
2022-11-03T21:37:42.942Z,11.98
2022-11-03T21:40:11.969Z,12.02
2022-11-03T21:42:57.150Z,11.89
2022-11-03T21:45:24.921Z,11.90
2022-11-03T21:48:12.785Z,11.86
2022-11-03T21:50:42.459Z,11.89
2022-11-03T21:53:12.220Z,11.85
2022-11-03T21:55:40.263Z,11.83
2022-11-03T21:58:09.072Z,11.81
2022-11-03T22:00:38.265Z,11.89
2022-11-03T22:03:06.378Z,11.87
2022-11-03T22:05:34.411Z,11.91
2022-11-03T22:08:02.137Z,11.83
2022-11-03T22:10:31.643Z,11.81
2022-11-03T22:12:59.396Z,11.88
2022-11-03T22:15:44.717Z,11.72
2022-11-03T22:18:12.849Z,11.85
2022-11-03T22:20:58.632Z,11.94
2022-11-03T22:23:43.756Z,11.79
2022-11-03T22:26:31.269Z,11.76
2022-11-03T22:29:17.190Z,11.85
2022-11-03T22:31:44.924Z,11.78
2022-11-03T22:34:46.797Z,11.55
2022-11-03T22:37:14.523Z,11.66
2022-11-03T22:40:03.001Z,11.78
2022-11-03T22:42:49.858Z,11.63
2022-11-03T22:45:35.317Z,11.75
2022-11-03T22:48:04.645Z,11.69
2022-11-03T22:50:32.399Z,11.59
2022-11-03T22:53:20.089Z,11.59
2022-11-03T22:55:46.818Z,11.56
2022-11-03T22:58:15.876Z,11.57
2022-11-03T23:00:43.687Z,11.54
2022-11-03T23:03:11.603Z,11.56
2022-11-03T23:05:39.384Z,11.69
2022-11-03T23:08:07.359Z,11.54
2022-11-03T23:10:35.102Z,11.63
2022-11-03T23:13:03.088Z,11.61
2022-11-03T23:15:35.079Z,11.51
2022-11-03T23:18:21.814Z,11.61
2022-11-03T23:21:07.885Z,11.57
2022-11-03T23:23:53.262Z,11.64
2022-11-03T23:26:21.455Z,11.71
2022-11-03T23:28:50.375Z,11.63
2022-11-03T23:31:19.511Z,11.68
2022-11-03T23:33:47.479Z,11.72
2022-11-03T23:36:17.068Z,11.70
2022-11-03T23:38:45.988Z,11.84
2022-11-03T23:41:15.360Z,11.86
2022-11-03T23:43:44.580Z,11.83
2022-11-03T23:46:30.782Z,11.89
2022-11-03T23:48:59.973Z,11.71
2022-11-03T23:51:29.147Z,11.76
2022-11-03T23:53:58.067Z,11.83
2022-11-03T23:56:45.179Z,11.71
2022-11-03T23:59:13.676Z,11.66
